N2235 KISP-KMHT
Flight info
| Callsign | N2235 |
|---|---|
| Flight time | 0h 54m |
| Altitude | 8500 |
| Route | VFR FLIGHT |
| Aircraft | COL4/L-VGD/A |
Departure
| Time | 2026-05-07 19:37 |
|---|---|
| Airport | Long Island MacArthur Airport (KISP) |
Arrival
| Time | 2026-05-07 20:32 |
|---|---|
| Airport | Manchester-Boston Regional Airport (KMHT) |
| Time | Latitude | Longitude | Altitude | Speed | Heading |
|---|---|---|---|---|---|
| 2026-05-07 19:22 | 40.79019 | -73.10062 | 89 ft | 0 kts | 3° |
| 2026-05-07 19:33 | 40.79023 | -73.10063 | 89 ft | 3 kts | 340° |
| 2026-05-07 19:33 | 40.79035 | -73.10075 | 91 ft | 0 kts | 316° |
| 2026-05-07 19:33 | 40.79041 | -73.10068 | 90 ft | 6 kts | 67° |
| 2026-05-07 19:34 | 40.79073 | -73.09974 | 90 ft | 14 kts | 56° |
| 2026-05-07 19:34 | 40.79104 | -73.09862 | 87 ft | 14 kts | 99° |
| 2026-05-07 19:34 | 40.79112 | -73.09738 | 86 ft | 14 kts | 79° |
| 2026-05-07 19:34 | 40.79111 | -73.09617 | 85 ft | 13 kts | 90° |
| 2026-05-07 19:35 | 40.79147 | -73.09521 | 84 ft | 11 kts | 45° |
| 2026-05-07 19:35 | 40.79167 | -73.09496 | 86 ft | 0 kts | 40° |
| 2026-05-07 19:35 | 40.79189 | -73.09473 | 84 ft | 12 kts | 38° |
| 2026-05-07 19:36 | 40.79272 | -73.09484 | 84 ft | 12 kts | 315° |
| 2026-05-07 19:36 | 40.79287 | -73.09505 | 84 ft | 0 kts | 316° |
| 2026-05-07 19:36 | 40.79371 | -73.09612 | 86 ft | 46 kts | 317° |
| 2026-05-07 19:36 | 40.79717 | -73.10074 | 148 ft | 87 kts | 317° |
| 2026-05-07 19:37 | 40.80157 | -73.10677 | 433 ft | 91 kts | 317° |
| 2026-05-07 19:37 | 40.80627 | -73.11314 | 706 ft | 107 kts | 317° |
| 2026-05-07 19:37 | 40.81158 | -73.12021 | 1141 ft | 109 kts | 313° |
| 2026-05-07 19:37 | 40.81676 | -73.12722 | 1687 ft | 102 kts | 314° |
| 2026-05-07 19:38 | 40.82261 | -73.13283 | 2023 ft | 117 kts | 343° |
| 2026-05-07 19:38 | 40.83051 | -73.13016 | 2511 ft | 123 kts | 39° |
| 2026-05-07 19:38 | 40.83389 | -73.11978 | 2975 ft | 130 kts | 75° |
| 2026-05-07 19:38 | 40.83610 | -73.10727 | 3220 ft | 150 kts | 73° |
| 2026-05-07 19:39 | 40.83923 | -73.09396 | 3526 ft | 155 kts | 65° |
| 2026-05-07 19:39 | 40.84400 | -73.08034 | 3640 ft | 171 kts | 59° |
| 2026-05-07 19:39 | 40.84981 | -73.06632 | 3706 ft | 176 kts | 57° |
| 2026-05-07 19:39 | 40.85382 | -73.05700 | 3759 ft | 176 kts | 58° |
| 2026-05-07 19:40 | 40.86199 | -73.03797 | 3769 ft | 181 kts | 56° |
| 2026-05-07 19:40 | 40.86846 | -73.02328 | 3695 ft | 188 kts | 57° |
| 2026-05-07 19:40 | 40.87733 | -73.01105 | 3601 ft | 186 kts | 26° |
| 2026-05-07 19:40 | 40.88912 | -73.00410 | 3527 ft | 186 kts | 20° |
| 2026-05-07 19:41 | 40.90106 | -72.99741 | 3453 ft | 187 kts | 19° |
| 2026-05-07 19:41 | 40.91291 | -72.99083 | 3370 ft | 187 kts | 19° |
| 2026-05-07 19:41 | 40.92477 | -72.98428 | 3369 ft | 182 kts | 20° |
| 2026-05-07 19:41 | 40.93640 | -72.97774 | 3367 ft | 181 kts | 20° |
| 2026-05-07 19:42 | 40.94423 | -72.97339 | 3367 ft | 181 kts | 20° |
| 2026-05-07 19:42 | 40.95552 | -72.96712 | 3530 ft | 177 kts | 20° |
| 2026-05-07 19:42 | 40.96683 | -72.96082 | 3730 ft | 175 kts | 20° |
| 2026-05-07 19:42 | 40.97799 | -72.95457 | 3932 ft | 173 kts | 20° |
| 2026-05-07 19:43 | 40.98903 | -72.94832 | 4147 ft | 172 kts | 20° |
| 2026-05-07 19:43 | 41.00000 | -72.94208 | 4354 ft | 170 kts | 20° |
| 2026-05-07 19:43 | 41.01088 | -72.93588 | 4562 ft | 170 kts | 20° |
| 2026-05-07 19:43 | 41.02169 | -72.92970 | 4775 ft | 169 kts | 20° |
| 2026-05-07 19:44 | 41.03254 | -72.92343 | 5032 ft | 163 kts | 19° |
| 2026-05-07 19:44 | 41.04199 | -72.91768 | 5675 ft | 143 kts | 19° |
| 2026-05-07 19:44 | 41.05093 | -72.91184 | 6085 ft | 144 kts | 19° |
| 2026-05-07 19:44 | 41.05990 | -72.90575 | 6463 ft | 146 kts | 19° |
| 2026-05-07 19:45 | 41.06900 | -72.89935 | 6803 ft | 150 kts | 19° |
| 2026-05-07 19:45 | 41.07832 | -72.89262 | 7137 ft | 154 kts | 19° |
| 2026-05-07 19:45 | 41.08785 | -72.88579 | 7462 ft | 157 kts | 18° |
| 2026-05-07 19:45 | 41.09749 | -72.87899 | 7761 ft | 161 kts | 17° |
| 2026-05-07 19:46 | 41.10749 | -72.87205 | 8048 ft | 164 kts | 15° |
| 2026-05-07 19:46 | 41.11772 | -72.86506 | 8323 ft | 167 kts | 16° |
| 2026-05-07 19:46 | 41.12859 | -72.85787 | 8353 ft | 182 kts | 16° |
| 2026-05-07 19:46 | 41.14029 | -72.85035 | 8360 ft | 191 kts | 16° |
| 2026-05-07 19:47 | 41.15246 | -72.84267 | 8361 ft | 196 kts | 15° |
| 2026-05-07 19:47 | 41.16490 | -72.83488 | 8362 ft | 199 kts | 15° |
| 2026-05-07 19:47 | 41.17753 | -72.82705 | 8361 ft | 201 kts | 15° |
| 2026-05-07 19:47 | 41.19025 | -72.81919 | 8361 ft | 202 kts | 15° |
| 2026-05-07 19:48 | 41.20285 | -72.81145 | 8361 ft | 202 kts | 15° |
| 2026-05-07 19:48 | 41.21562 | -72.80359 | 8360 ft | 201 kts | 15° |
| 2026-05-07 19:48 | 41.22832 | -72.79578 | 8362 ft | 201 kts | 15° |
| 2026-05-07 19:48 | 41.24104 | -72.78798 | 8361 ft | 201 kts | 15° |
| 2026-05-07 19:49 | 41.25376 | -72.78018 | 8359 ft | 201 kts | 15° |
| 2026-05-07 19:49 | 41.26636 | -72.77246 | 8359 ft | 201 kts | 15° |
| 2026-05-07 19:49 | 41.27909 | -72.76465 | 8359 ft | 201 kts | 15° |
| 2026-05-07 19:49 | 41.29185 | -72.75684 | 8358 ft | 202 kts | 15° |
| 2026-05-07 19:50 | 41.30459 | -72.74906 | 8369 ft | 201 kts | 15° |
| 2026-05-07 19:50 | 41.31732 | -72.74127 | 8359 ft | 201 kts | 15° |
| 2026-05-07 19:50 | 41.33008 | -72.73348 | 8359 ft | 201 kts | 15° |
| 2026-05-07 19:50 | 41.34281 | -72.72571 | 8356 ft | 201 kts | 15° |
| 2026-05-07 19:51 | 41.35537 | -72.71805 | 8354 ft | 200 kts | 15° |
| 2026-05-07 19:51 | 41.36803 | -72.71033 | 8341 ft | 200 kts | 15° |
| 2026-05-07 19:51 | 41.38070 | -72.70260 | 8345 ft | 200 kts | 15° |
| 2026-05-07 19:51 | 41.39341 | -72.69491 | 8344 ft | 202 kts | 15° |
| 2026-05-07 19:52 | 41.40628 | -72.68698 | 8336 ft | 204 kts | 16° |
| 2026-05-07 19:52 | 41.41905 | -72.67914 | 8335 ft | 200 kts | 15° |
| 2026-05-07 19:52 | 41.43148 | -72.67098 | 8331 ft | 197 kts | 19° |
| 2026-05-07 19:52 | 41.44238 | -72.65942 | 8322 ft | 210 kts | 48° |
| 2026-05-07 19:53 | 41.44918 | -72.64179 | 8323 ft | 216 kts | 60° |
| 2026-05-07 19:53 | 41.45522 | -72.62344 | 8330 ft | 217 kts | 62° |
| 2026-05-07 19:53 | 41.46123 | -72.60489 | 8331 ft | 218 kts | 62° |
| 2026-05-07 19:53 | 41.46725 | -72.58623 | 8331 ft | 220 kts | 62° |
| 2026-05-07 19:54 | 41.47322 | -72.56772 | 8331 ft | 220 kts | 62° |
| 2026-05-07 19:54 | 41.47926 | -72.54897 | 8333 ft | 220 kts | 62° |
| 2026-05-07 19:54 | 41.48538 | -72.53018 | 8338 ft | 219 kts | 62° |
| 2026-05-07 19:54 | 41.49313 | -72.51338 | 8331 ft | 207 kts | 34° |
| 2026-05-07 19:55 | 41.50485 | -72.50319 | 8334 ft | 200 kts | 22° |
| 2026-05-07 19:55 | 41.51686 | -72.49393 | 8340 ft | 199 kts | 20° |
| 2026-05-07 19:55 | 41.52884 | -72.48476 | 8342 ft | 198 kts | 20° |
| 2026-05-07 19:55 | 41.54061 | -72.47551 | 8354 ft | 200 kts | 25° |
| 2026-05-07 19:56 | 41.55234 | -72.46574 | 8343 ft | 195 kts | 16° |
| 2026-05-07 19:56 | 41.56451 | -72.45726 | 8356 ft | 200 kts | 21° |
| 2026-05-07 19:56 | 41.57666 | -72.44934 | 8329 ft | 189 kts | 14° |
| 2026-05-07 19:56 | 41.58757 | -72.43816 | 8348 ft | 201 kts | 31° |
| 2026-05-07 19:57 | 41.59942 | -72.42897 | 8353 ft | 196 kts | 16° |
| 2026-05-07 19:57 | 41.61170 | -72.42063 | 8351 ft | 196 kts | 12° |
| 2026-05-07 19:57 | 41.62438 | -72.41550 | 8352 ft | 194 kts | 12° |
| 2026-05-07 19:57 | 41.63711 | -72.40985 | 8346 ft | 191 kts | 6° |
| 2026-05-07 19:58 | 41.64992 | -72.40489 | 8351 ft | 191 kts | 7° |
| 2026-05-07 19:58 | 41.66269 | -72.39956 | 8352 ft | 193 kts | 8° |
| 2026-05-07 19:58 | 41.67551 | -72.39403 | 8348 ft | 192 kts | 9° |
| 2026-05-07 19:58 | 41.68829 | -72.38877 | 8349 ft | 192 kts | 7° |
| 2026-05-07 19:59 | 41.70111 | -72.38343 | 8352 ft | 194 kts | 7° |
| 2026-05-07 19:59 | 41.71401 | -72.37803 | 8352 ft | 194 kts | 7° |
| 2026-05-07 19:59 | 41.72680 | -72.37213 | 8350 ft | 196 kts | 13° |
| 2026-05-07 19:59 | 41.73913 | -72.36383 | 8349 ft | 200 kts | 20° |
| 2026-05-07 20:00 | 41.75104 | -72.35383 | 8348 ft | 203 kts | 24° |
| 2026-05-07 20:00 | 41.76275 | -72.34369 | 8350 ft | 203 kts | 22° |
| 2026-05-07 20:00 | 41.77491 | -72.33431 | 8350 ft | 201 kts | 18° |
| 2026-05-07 20:00 | 41.78741 | -72.32613 | 8348 ft | 198 kts | 15° |
| 2026-05-07 20:01 | 41.79938 | -72.31654 | 8349 ft | 203 kts | 25° |
| 2026-05-07 20:01 | 41.81106 | -72.30585 | 8346 ft | 203 kts | 25° |
| 2026-05-07 20:01 | 41.82268 | -72.29445 | 8156 ft | 209 kts | 21° |
| 2026-05-07 20:01 | 41.83641 | -72.29036 | 7637 ft | 207 kts | 355° |
| 2026-05-07 20:02 | 41.84988 | -72.28485 | 7752 ft | 204 kts | 23° |
| 2026-05-07 20:02 | 41.86112 | -72.27358 | 7881 ft | 200 kts | 31° |
| 2026-05-07 20:02 | 41.87156 | -72.26159 | 8001 ft | 196 kts | 32° |
| 2026-05-07 20:02 | 41.88210 | -72.24933 | 7876 ft | 204 kts | 32° |
| 2026-05-07 20:03 | 41.89301 | -72.23680 | 7745 ft | 207 kts | 32° |
| 2026-05-07 20:03 | 41.90463 | -72.22548 | 7628 ft | 206 kts | 26° |
| 2026-05-07 20:03 | 41.91658 | -72.21487 | 7502 ft | 205 kts | 26° |
| 2026-05-07 20:03 | 41.92841 | -72.20441 | 7378 ft | 203 kts | 25° |
| 2026-05-07 20:04 | 41.94023 | -72.19409 | 7250 ft | 201 kts | 26° |
| 2026-05-07 20:04 | 41.95191 | -72.18403 | 7122 ft | 198 kts | 25° |
| 2026-05-07 20:04 | 41.96336 | -72.17408 | 6997 ft | 197 kts | 26° |
| 2026-05-07 20:04 | 41.97498 | -72.16433 | 6871 ft | 196 kts | 23° |
| 2026-05-07 20:05 | 41.98692 | -72.15587 | 6748 ft | 193 kts | 20° |
| 2026-05-07 20:05 | 41.99885 | -72.14766 | 6623 ft | 192 kts | 20° |
| 2026-05-07 20:05 | 42.01075 | -72.13964 | 6502 ft | 192 kts | 20° |
| 2026-05-07 20:05 | 42.02266 | -72.13162 | 6383 ft | 191 kts | 21° |
| 2026-05-07 20:06 | 42.03450 | -72.12378 | 6334 ft | 187 kts | 20° |
| 2026-05-07 20:06 | 42.04609 | -72.11605 | 6331 ft | 184 kts | 20° |
| 2026-05-07 20:06 | 42.05743 | -72.10850 | 6331 ft | 183 kts | 20° |
| 2026-05-07 20:06 | 42.06888 | -72.10085 | 6328 ft | 184 kts | 20° |
| 2026-05-07 20:07 | 42.08030 | -72.09325 | 6329 ft | 183 kts | 20° |
| 2026-05-07 20:07 | 42.09171 | -72.08561 | 6329 ft | 182 kts | 20° |
| 2026-05-07 20:07 | 42.10304 | -72.07805 | 6327 ft | 181 kts | 20° |
| 2026-05-07 20:07 | 42.11434 | -72.07050 | 6328 ft | 181 kts | 20° |
| 2026-05-07 20:08 | 42.12545 | -72.06241 | 6325 ft | 183 kts | 26° |
| 2026-05-07 20:08 | 42.13627 | -72.05334 | 6327 ft | 184 kts | 26° |
| 2026-05-07 20:08 | 42.14712 | -72.04409 | 6326 ft | 185 kts | 26° |
| 2026-05-07 20:08 | 42.15795 | -72.03482 | 6240 ft | 188 kts | 26° |
| 2026-05-07 20:09 | 42.16907 | -72.02530 | 6135 ft | 191 kts | 26° |
| 2026-05-07 20:09 | 42.18035 | -72.01571 | 6028 ft | 192 kts | 26° |
| 2026-05-07 20:09 | 42.19162 | -72.00615 | 5908 ft | 190 kts | 26° |
| 2026-05-07 20:10 | 42.21405 | -71.98720 | 5704 ft | 193 kts | 26° |
| 2026-05-07 20:10 | 42.22526 | -71.97762 | 5600 ft | 193 kts | 26° |
| 2026-05-07 20:10 | 42.23657 | -71.96790 | 5495 ft | 193 kts | 27° |
| 2026-05-07 20:10 | 42.24799 | -71.95843 | 5391 ft | 191 kts | 25° |
| 2026-05-07 20:11 | 42.25956 | -71.94962 | 5286 ft | 191 kts | 24° |
| 2026-05-07 20:11 | 42.27121 | -71.94089 | 5185 ft | 191 kts | 22° |
| 2026-05-07 20:11 | 42.28284 | -71.93208 | 5083 ft | 191 kts | 23° |
| 2026-05-07 20:11 | 42.29445 | -71.92341 | 4979 ft | 191 kts | 22° |
| 2026-05-07 20:12 | 42.30604 | -71.91462 | 4878 ft | 191 kts | 22° |
| 2026-05-07 20:12 | 42.31762 | -71.90589 | 4779 ft | 190 kts | 25° |
| 2026-05-07 20:12 | 42.32911 | -71.89748 | 4678 ft | 190 kts | 24° |
| 2026-05-07 20:12 | 42.34072 | -71.88897 | 4574 ft | 189 kts | 23° |
| 2026-05-07 20:13 | 42.35232 | -71.88044 | 4474 ft | 189 kts | 24° |
| 2026-05-07 20:13 | 42.36395 | -71.87208 | 4365 ft | 188 kts | 24° |
| 2026-05-07 20:13 | 42.37532 | -71.86378 | 4314 ft | 186 kts | 24° |
| 2026-05-07 20:13 | 42.38658 | -71.85561 | 4314 ft | 183 kts | 23° |
| 2026-05-07 20:14 | 42.39776 | -71.84757 | 4311 ft | 180 kts | 22° |
| 2026-05-07 20:14 | 42.40890 | -71.83936 | 4317 ft | 183 kts | 23° |
| 2026-05-07 20:14 | 42.42026 | -71.83113 | 4316 ft | 187 kts | 24° |
| 2026-05-07 20:14 | 42.43179 | -71.82297 | 4315 ft | 187 kts | 22° |
| 2026-05-07 20:15 | 42.44306 | -71.81442 | 4312 ft | 187 kts | 26° |
| 2026-05-07 20:15 | 42.45452 | -71.80619 | 4311 ft | 186 kts | 21° |
| 2026-05-07 20:15 | 42.46602 | -71.79799 | 4306 ft | 187 kts | 23° |
| 2026-05-07 20:15 | 42.47747 | -71.78957 | 4302 ft | 186 kts | 23° |
| 2026-05-07 20:16 | 42.48878 | -71.78129 | 4301 ft | 184 kts | 24° |
| 2026-05-07 20:16 | 42.50005 | -71.77298 | 4297 ft | 184 kts | 23° |
| 2026-05-07 20:16 | 42.51108 | -71.76478 | 4299 ft | 183 kts | 23° |
| 2026-05-07 20:16 | 42.52235 | -71.75659 | 4297 ft | 183 kts | 22° |
| 2026-05-07 20:17 | 42.53355 | -71.74830 | 4297 ft | 184 kts | 24° |
| 2026-05-07 20:17 | 42.54474 | -71.74001 | 4295 ft | 183 kts | 23° |
| 2026-05-07 20:17 | 42.55590 | -71.73183 | 4312 ft | 183 kts | 23° |
| 2026-05-07 20:17 | 42.56682 | -71.72366 | 4428 ft | 175 kts | 22° |
| 2026-05-07 20:18 | 42.57749 | -71.71575 | 4520 ft | 175 kts | 23° |
| 2026-05-07 20:18 | 42.58830 | -71.70784 | 4524 ft | 178 kts | 22° |
| 2026-05-07 20:18 | 42.59918 | -71.69977 | 4526 ft | 179 kts | 23° |
| 2026-05-07 20:18 | 42.61018 | -71.69160 | 4527 ft | 180 kts | 23° |
| 2026-05-07 20:19 | 42.62123 | -71.68342 | 4529 ft | 181 kts | 23° |
| 2026-05-07 20:19 | 42.63090 | -71.67211 | 4523 ft | 186 kts | 41° |
| 2026-05-07 20:19 | 42.63981 | -71.65962 | 4524 ft | 185 kts | 39° |
| 2026-05-07 20:19 | 42.64896 | -71.64722 | 4526 ft | 186 kts | 39° |
| 2026-05-07 20:20 | 42.65835 | -71.63529 | 4527 ft | 183 kts | 32° |
| 2026-05-07 20:20 | 42.66871 | -71.62532 | 4518 ft | 183 kts | 30° |
| 2026-05-07 20:20 | 42.67922 | -71.61546 | 4519 ft | 184 kts | 29° |
| 2026-05-07 20:20 | 42.68984 | -71.60582 | 4517 ft | 184 kts | 27° |
| 2026-05-07 20:21 | 42.70058 | -71.59651 | 4521 ft | 183 kts | 28° |
| 2026-05-07 20:21 | 42.71130 | -71.58717 | 4518 ft | 184 kts | 28° |
| 2026-05-07 20:21 | 42.72205 | -71.57790 | 4529 ft | 181 kts | 26° |
| 2026-05-07 20:21 | 42.73259 | -71.56856 | 4518 ft | 183 kts | 27° |
| 2026-05-07 20:22 | 42.74330 | -71.55922 | 4524 ft | 182 kts | 27° |
| 2026-05-07 20:22 | 42.75409 | -71.55002 | 4518 ft | 182 kts | 24° |
| 2026-05-07 20:22 | 42.76538 | -71.54205 | 4528 ft | 183 kts | 20° |
| 2026-05-07 20:22 | 42.77654 | -71.53362 | 4515 ft | 183 kts | 24° |
| 2026-05-07 20:23 | 42.78759 | -71.52541 | 4522 ft | 182 kts | 23° |
| 2026-05-07 20:23 | 42.79879 | -71.51709 | 4519 ft | 184 kts | 22° |
| 2026-05-07 20:23 | 42.80999 | -71.50860 | 4471 ft | 185 kts | 22° |
| 2026-05-07 20:23 | 42.82146 | -71.50015 | 4341 ft | 188 kts | 21° |
| 2026-05-07 20:24 | 42.83299 | -71.49210 | 4052 ft | 190 kts | 20° |
| 2026-05-07 20:24 | 42.84443 | -71.48374 | 3913 ft | 179 kts | 26° |
| 2026-05-07 20:24 | 42.85486 | -71.47527 | 3750 ft | 170 kts | 22° |
| 2026-05-07 20:24 | 42.86497 | -71.46604 | 3389 ft | 178 kts | 34° |
| 2026-05-07 20:25 | 42.87370 | -71.45413 | 3030 ft | 172 kts | 31° |
| 2026-05-07 20:25 | 42.88365 | -71.44701 | 2846 ft | 158 kts | 16° |
| 2026-05-07 20:25 | 42.89351 | -71.44150 | 2516 ft | 156 kts | 15° |
| 2026-05-07 20:25 | 42.90343 | -71.43567 | 2186 ft | 152 kts | 14° |
| 2026-05-07 20:26 | 42.91301 | -71.43101 | 2044 ft | 139 kts | 10° |
| 2026-05-07 20:26 | 42.92173 | -71.42675 | 2047 ft | 128 kts | 9° |
| 2026-05-07 20:26 | 42.93022 | -71.42268 | 1987 ft | 128 kts | 13° |
| 2026-05-07 20:26 | 42.93864 | -71.41840 | 1937 ft | 129 kts | 10° |
| 2026-05-07 20:27 | 42.94675 | -71.41539 | 1955 ft | 111 kts | 349° |
| 2026-05-07 20:27 | 42.95349 | -71.41874 | 1941 ft | 102 kts | 327° |
| 2026-05-07 20:27 | 42.95942 | -71.42378 | 1857 ft | 98 kts | 305° |
| 2026-05-07 20:27 | 42.96031 | -71.43297 | 1653 ft | 111 kts | 258° |
| 2026-05-07 20:28 | 42.95561 | -71.44160 | 1565 ft | 112 kts | 233° |
| 2026-05-07 20:28 | 42.95015 | -71.44869 | 1436 ft | 108 kts | 236° |
| 2026-05-07 20:28 | 42.94471 | -71.45577 | 1325 ft | 108 kts | 236° |
| 2026-05-07 20:28 | 42.93915 | -71.46241 | 1328 ft | 106 kts | 211° |
| 2026-05-07 20:29 | 42.93166 | -71.46128 | 1246 ft | 124 kts | 155° |
| 2026-05-07 20:29 | 42.92475 | -71.45401 | 1179 ft | 125 kts | 149° |
| 2026-05-07 20:29 | 42.91812 | -71.44705 | 1223 ft | 115 kts | 150° |
| 2026-05-07 20:29 | 42.91142 | -71.44169 | 1281 ft | 109 kts | 159° |
| 2026-05-07 20:30 | 42.90476 | -71.43673 | 1264 ft | 110 kts | 159° |
| 2026-05-07 20:30 | 42.89848 | -71.43063 | 1215 ft | 112 kts | 132° |
| 2026-05-07 20:30 | 42.89664 | -71.42432 | 1207 ft | 110 kts | 88° |
| 2026-05-07 20:30 | 42.90165 | -71.41527 | 953 ft | 84 kts | 349° |
| 2026-05-07 20:31 | 42.90515 | -71.41769 | 805 ft | 85 kts | 327° |
| 2026-05-07 20:31 | 42.90988 | -71.42064 | 626 ft | 71 kts | 328° |
| 2026-05-07 20:31 | 42.91425 | -71.42325 | 460 ft | 65 kts | 333° |
| 2026-05-07 20:31 | 42.91803 | -71.42551 | 366 ft | 53 kts | 329° |
| 2026-05-07 20:32 | 42.92129 | -71.42729 | 296 ft | 47 kts | 329° |
| 2026-05-07 20:32 | 42.92415 | -71.42889 | 252 ft | 42 kts | 328° |
| 2026-05-07 20:32 | 42.92661 | -71.43047 | 239 ft | 36 kts | 327° |
| 2026-05-07 20:32 | 42.92880 | -71.43187 | 235 ft | 35 kts | 338° |
| 2026-05-07 20:33 | 42.93118 | -71.43331 | 232 ft | 39 kts | 337° |
| 2026-05-07 20:33 | 42.93367 | -71.43472 | 226 ft | 29 kts | 336° |
| 2026-05-07 20:33 | 42.93487 | -71.43480 | 223 ft | 16 kts | 65° |
| 2026-05-07 20:33 | 42.93483 | -71.43387 | 225 ft | 9 kts | 153° |
| 2026-05-07 20:34 | 42.93422 | -71.43348 | 226 ft | 11 kts | 156° |
| 2026-05-07 20:34 | 42.93336 | -71.43295 | 228 ft | 17 kts | 158° |
| 2026-05-07 20:34 | 42.93258 | -71.43219 | 230 ft | 12 kts | 81° |
| 2026-05-07 20:34 | 42.93278 | -71.43197 | 229 ft | 1 kts | 348° |
| 2026-05-07 20:35 | 42.93287 | -71.43201 | 229 ft | 0 kts | 332° |